Terminal Aerodrome Forecast
Issued by NWS Binghamton, NY

Home | Current Version | Previous Version | Text Only | Print | Product List | Glossary On
Versions: 1 2 3 4 5 6 7 8 9 10 11 12 13 14 15 16 17 18 19 20
000
FTUS41 KBGM 281700
TAFSYR
TAF
KSYR 281733Z 2818/0118 VRB06KT P6SM SCT250
     FM011000 14006KT P6SM OVC100
     FM011300 16008KT P6SM OVC040
      TEMPO 0113/0117 2SM -SN BR OVC025
     FM011700 18009KT 2SM -SN BR OVC015=

USA.gov is the U.S. government's official web portal to all federal, state and local government web resources and services.